sensor_id;sensor_type;location;lat;lon;timestamp;temperature;humidity
15717;DHT22;7960;50.908;4.204;2022-12-13T00:01:55;-1.60;99.90
15717;DHT22;7960;50.908;4.204;2022-12-13T00:04:23;-1.60;99.90
15717;DHT22;7960;50.908;4.204;2022-12-13T00:06:51;-1.50;99.90
15717;DHT22;7960;50.908;4.204;2022-12-13T00:09:21;-1.50;99.90
15717;DHT22;7960;50.908;4.204;2022-12-13T00:11:49;-1.60;99.90
15717;DHT22;7960;50.908;4.204;2022-12-13T00:14:17;-1.60;99.90
15717;DHT22;7960;50.908;4.204;2022-12-13T00:16:44;-1.70;99.90
15717;DHT22;7960;50.908;4.204;2022-12-13T00:19:12;-1.70;99.90
15717;DHT22;7960;50.908;4.204;2022-12-13T00:21:39;-1.70;99.90
15717;DHT22;7960;50.908;4.204;2022-12-13T00:24:06;-1.70;99.90
15717;DHT22;7960;50.908;4.204;2022-12-13T00:26:35;-1.80;99.90
15717;DHT22;7960;50.908;4.204;2022-12-13T00:29:04;-1.90;99.90
15717;DHT22;7960;50.908;4.204;2022-12-13T00:31:31;-1.90;99.90
15717;DHT22;7960;50.908;4.204;2022-12-13T00:33:59;-1.90;99.90
15717;DHT22;7960;50.908;4.204;2022-12-13T00:36:25;-1.90;99.90
15717;DHT22;7960;50.908;4.204;2022-12-13T00:38:52;-1.80;99.90
15717;DHT22;7960;50.908;4.204;2022-12-13T00:41:27;-1.80;99.90
15717;DHT22;7960;50.908;4.204;2022-12-13T00:43:55;-1.80;99.90
15717;DHT22;7960;50.908;4.204;2022-12-13T00:46:23;-1.80;99.90
15717;DHT22;7960;50.908;4.204;2022-12-13T00:48:53;-1.90;99.90
15717;DHT22;7960;50.908;4.204;2022-12-13T00:51:21;-1.90;99.90
15717;DHT22;7960;50.908;4.204;2022-12-13T00:53:48;-1.90;99.90
15717;DHT22;7960;50.908;4.204;2022-12-13T00:56:17;-1.90;99.90
15717;DHT22;7960;50.908;4.204;2022-12-13T00:58:46;-1.90;99.90
15717;DHT22;7960;50.908;4.204;2022-12-13T01:01:16;-1.90;99.90
15717;DHT22;7960;50.908;4.204;2022-12-13T01:03:43;-1.90;99.90
15717;DHT22;7960;50.908;4.204;2022-12-13T01:06:11;-1.90;99.90
15717;DHT22;7960;50.908;4.204;2022-12-13T01:08:39;-1.80;99.90
15717;DHT22;7960;50.908;4.204;2022-12-13T01:11:06;-1.90;99.90
15717;DHT22;7960;50.908;4.204;2022-12-13T01:13:33;-2.00;99.90
15717;DHT22;7960;50.908;4.204;2022-12-13T01:16:02;-2.00;99.90
15717;DHT22;7960;50.908;4.204;2022-12-13T01:18:31;-2.10;99.90
15717;DHT22;7960;50.908;4.204;2022-12-13T01:20:59;-2.10;99.90
15717;DHT22;7960;50.908;4.204;2022-12-13T01:23:27;-2.10;99.90
15717;DHT22;7960;50.908;4.204;2022-12-13T01:25:54;-2.10;99.90
15717;DHT22;7960;50.908;4.204;2022-12-13T01:28:21;-2.20;99.90
15717;DHT22;7960;50.908;4.204;2022-12-13T01:30:56;-2.30;99.90
15717;DHT22;7960;50.908;4.204;2022-12-13T01:33:23;-2.40;99.90
15717;DHT22;7960;50.908;4.204;2022-12-13T01:35:52;-2.30;99.90
15717;DHT22;7960;50.908;4.204;2022-12-13T01:38:20;-2.20;99.90
15717;DHT22;7960;50.908;4.204;2022-12-13T01:40:49;-2.20;99.90
15717;DHT22;7960;50.908;4.204;2022-12-13T01:43:22;-2.20;99.90
15717;DHT22;7960;50.908;4.204;2022-12-13T01:45:50;-2.20;99.90
15717;DHT22;7960;50.908;4.204;2022-12-13T01:48:20;-2.10;99.90
15717;DHT22;7960;50.908;4.204;2022-12-13T01:50:51;-2.20;99.90
15717;DHT22;7960;50.908;4.204;2022-12-13T01:53:22;-2.30;99.90
15717;DHT22;7960;50.908;4.204;2022-12-13T01:55:54;-2.30;99.90
15717;DHT22;7960;50.908;4.204;2022-12-13T01:58:22;-2.30;99.90
15717;DHT22;7960;50.908;4.204;2022-12-13T02:00:50;-2.40;99.90
15717;DHT22;7960;50.908;4.204;2022-12-13T02:03:19;-2.30;99.90
15717;DHT22;7960;50.908;4.204;2022-12-13T02:05:53;-2.40;99.90
15717;DHT22;7960;50.908;4.204;2022-12-13T02:08:23;-2.40;99.90
15717;DHT22;7960;50.908;4.204;2022-12-13T02:10:51;-2.40;99.90
15717;DHT22;7960;50.908;4.204;2022-12-13T02:13:18;-2.40;99.90
15717;DHT22;7960;50.908;4.204;2022-12-13T02:15:50;-2.30;99.90
15717;DHT22;7960;50.908;4.204;2022-12-13T02:18:29;-2.40;99.90
15717;DHT22;7960;50.908;4.204;2022-12-13T02:21:11;-2.30;99.90
15717;DHT22;7960;50.908;4.204;2022-12-13T02:24:11;-2.30;99.90
15717;DHT22;7960;50.908;4.204;2022-12-13T02:27:02;-2.30;99.90
15717;DHT22;7960;50.908;4.204;2022-12-13T02:32:49;-2.50;99.90
15717;DHT22;7960;50.908;4.204;2022-12-13T02:35:24;-2.70;99.90
15717;DHT22;7960;50.908;4.204;2022-12-13T02:37:58;-2.70;99.90
15717;DHT22;7960;50.908;4.204;2022-12-13T02:40:31;-2.70;99.90
15717;DHT22;7960;50.908;4.204;2022-12-13T02:43:03;-2.80;99.90
15717;DHT22;7960;50.908;4.204;2022-12-13T02:45:36;-2.70;99.90
15717;DHT22;7960;50.908;4.204;2022-12-13T02:48:07;-2.80;99.90
15717;DHT22;7960;50.908;4.204;2022-12-13T02:50:36;-2.70;99.90
15717;DHT22;7960;50.908;4.204;2022-12-13T02:53:04;-2.70;99.90
15717;DHT22;7960;50.908;4.204;2022-12-13T02:55:32;-2.80;99.90
15717;DHT22;7960;50.908;4.204;2022-12-13T02:58:00;-2.80;99.90
15717;DHT22;7960;50.908;4.204;2022-12-13T03:00:34;-2.80;99.90
15717;DHT22;7960;50.908;4.204;2022-12-13T03:03:14;-2.80;99.90
15717;DHT22;7960;50.908;4.204;2022-12-13T03:05:50;-2.80;99.90
15717;DHT22;7960;50.908;4.204;2022-12-13T03:08:46;-2.80;99.90
15717;DHT22;7960;50.908;4.204;2022-12-13T03:11:18;-2.70;99.90
15717;DHT22;7960;50.908;4.204;2022-12-13T03:13:48;-2.60;99.90
15717;DHT22;7960;50.908;4.204;2022-12-13T03:16:27;-2.50;99.90
15717;DHT22;7960;50.908;4.204;2022-12-13T03:19:00;-2.40;99.90
15717;DHT22;7960;50.908;4.204;2022-12-13T03:21:28;-2.50;99.90
15717;DHT22;7960;50.908;4.204;2022-12-13T03:23:55;-2.50;99.90
15717;DHT22;7960;50.908;4.204;2022-12-13T03:26:24;-2.60;99.90
15717;DHT22;7960;50.908;4.204;2022-12-13T03:28:52;-2.50;99.90
15717;DHT22;7960;50.908;4.204;2022-12-13T03:31:19;-2.50;99.90
15717;DHT22;7960;50.908;4.204;2022-12-13T03:33:46;-2.60;99.90
15717;DHT22;7960;50.908;4.204;2022-12-13T03:36:15;-2.60;99.90
15717;DHT22;7960;50.908;4.204;2022-12-13T03:38:43;-2.40;99.90
15717;DHT22;7960;50.908;4.204;2022-12-13T03:41:12;-2.40;99.90
15717;DHT22;7960;50.908;4.204;2022-12-13T03:43:40;-2.40;99.90
15717;DHT22;7960;50.908;4.204;2022-12-13T03:46:07;-2.40;99.90
15717;DHT22;7960;50.908;4.204;2022-12-13T03:48:35;-2.40;99.90
15717;DHT22;7960;50.908;4.204;2022-12-13T03:51:02;-2.40;99.90
15717;DHT22;7960;50.908;4.204;2022-12-13T03:53:31;-2.40;99.90
15717;DHT22;7960;50.908;4.204;2022-12-13T03:55:57;-2.30;99.90
15717;DHT22;7960;50.908;4.204;2022-12-13T03:58:25;-2.30;99.90
15717;DHT22;7960;50.908;4.204;2022-12-13T04:00:51;-2.40;99.90
15717;DHT22;7960;50.908;4.204;2022-12-13T04:03:18;-2.40;99.90
15717;DHT22;7960;50.908;4.204;2022-12-13T04:05:45;-2.40;99.90
15717;DHT22;7960;50.908;4.204;2022-12-13T04:08:12;-2.20;99.90
15717;DHT22;7960;50.908;4.204;2022-12-13T04:10:40;-2.30;99.90
15717;DHT22;7960;50.908;4.204;2022-12-13T04:13:08;-2.30;99.90
15717;DHT22;7960;50.908;4.204;2022-12-13T04:15:52;-2.40;99.90
15717;DHT22;7960;50.908;4.204;2022-12-13T04:18:19;-2.30;99.90
15717;DHT22;7960;50.908;4.204;2022-12-13T04:20:46;-2.30;99.90
15717;DHT22;7960;50.908;4.204;2022-12-13T04:23:13;-2.30;99.90
15717;DHT22;7960;50.908;4.204;2022-12-13T04:25:42;-2.30;99.90
15717;DHT22;7960;50.908;4.204;2022-12-13T04:28:09;-2.40;99.90
15717;DHT22;7960;50.908;4.204;2022-12-13T04:30:36;-2.40;99.90
15717;DHT22;7960;50.908;4.204;2022-12-13T04:33:03;-2.40;99.90
15717;DHT22;7960;50.908;4.204;2022-12-13T04:35:30;-2.30;99.90
15717;DHT22;7960;50.908;4.204;2022-12-13T04:37:57;-2.30;99.90
15717;DHT22;7960;50.908;4.204;2022-12-13T04:40:24;-2.40;99.90
15717;DHT22;7960;50.908;4.204;2022-12-13T04:42:52;-2.40;99.90
15717;DHT22;7960;50.908;4.204;2022-12-13T04:45:20;-2.40;99.90
15717;DHT22;7960;50.908;4.204;2022-12-13T04:47:48;-2.40;99.90
15717;DHT22;7960;50.908;4.204;2022-12-13T04:50:15;-2.40;99.90
15717;DHT22;7960;50.908;4.204;2022-12-13T04:52:42;-2.40;99.90
15717;DHT22;7960;50.908;4.204;2022-12-13T04:55:10;-2.40;99.90
15717;DHT22;7960;50.908;4.204;2022-12-13T04:57:37;-2.40;99.90
15717;DHT22;7960;50.908;4.204;2022-12-13T05:00:07;-2.60;99.90
15717;DHT22;7960;50.908;4.204;2022-12-13T05:02:35;-2.60;99.90
15717;DHT22;7960;50.908;4.204;2022-12-13T05:05:02;-2.60;99.90
15717;DHT22;7960;50.908;4.204;2022-12-13T05:07:29;-2.60;99.90
15717;DHT22;7960;50.908;4.204;2022-12-13T05:09:56;-2.60;99.90
15717;DHT22;7960;50.908;4.204;2022-12-13T05:12:22;-2.60;99.90
15717;DHT22;7960;50.908;4.204;2022-12-13T05:14:49;-2.50;99.90
15717;DHT22;7960;50.908;4.204;2022-12-13T05:17:18;-2.70;99.90
15717;DHT22;7960;50.908;4.204;2022-12-13T05:19:44;-2.60;99.90
15717;DHT22;7960;50.908;4.204;2022-12-13T05:22:11;-2.60;99.90
15717;DHT22;7960;50.908;4.204;2022-12-13T05:24:40;-2.60;99.90
15717;DHT22;7960;50.908;4.204;2022-12-13T05:27:08;-2.60;99.90
15717;DHT22;7960;50.908;4.204;2022-12-13T05:29:36;-2.60;99.90
15717;DHT22;7960;50.908;4.204;2022-12-13T05:32:03;-2.60;99.90
15717;DHT22;7960;50.908;4.204;2022-12-13T05:34:31;-2.60;99.90
15717;DHT22;7960;50.908;4.204;2022-12-13T05:36:58;-2.80;99.90
15717;DHT22;7960;50.908;4.204;2022-12-13T05:39:25;-2.70;99.90
15717;DHT22;7960;50.908;4.204;2022-12-13T05:41:53;-2.70;99.90
15717;DHT22;7960;50.908;4.204;2022-12-13T05:44:20;-2.60;99.90
15717;DHT22;7960;50.908;4.204;2022-12-13T05:46:47;-2.60;99.90
15717;DHT22;7960;50.908;4.204;2022-12-13T05:49:13;-2.60;99.90
15717;DHT22;7960;50.908;4.204;2022-12-13T05:51:42;-2.80;99.90
15717;DHT22;7960;50.908;4.204;2022-12-13T05:54:08;-2.80;99.90
15717;DHT22;7960;50.908;4.204;2022-12-13T05:56:35;-2.90;99.90
15717;DHT22;7960;50.908;4.204;2022-12-13T05:59:02;-2.90;99.90
15717;DHT22;7960;50.908;4.204;2022-12-13T06:01:29;-2.80;99.90
15717;DHT22;7960;50.908;4.204;2022-12-13T06:03:56;-2.80;99.90
15717;DHT22;7960;50.908;4.204;2022-12-13T06:06:22;-2.70;99.90
15717;DHT22;7960;50.908;4.204;2022-12-13T06:08:51;-2.60;99.90
15717;DHT22;7960;50.908;4.204;2022-12-13T06:11:18;-2.60;99.90
15717;DHT22;7960;50.908;4.204;2022-12-13T06:13:50;-2.80;99.90
15717;DHT22;7960;50.908;4.204;2022-12-13T06:16:17;-2.80;99.90
15717;DHT22;7960;50.908;4.204;2022-12-13T06:18:44;-2.90;99.90
15717;DHT22;7960;50.908;4.204;2022-12-13T06:21:11;-2.90;99.90
15717;DHT22;7960;50.908;4.204;2022-12-13T06:23:37;-2.90;99.90
15717;DHT22;7960;50.908;4.204;2022-12-13T06:26:06;-2.80;99.90
15717;DHT22;7960;50.908;4.204;2022-12-13T06:28:33;-2.90;99.90
15717;DHT22;7960;50.908;4.204;2022-12-13T06:31:00;-2.90;99.90
15717;DHT22;7960;50.908;4.204;2022-12-13T06:33:28;-2.90;99.90
15717;DHT22;7960;50.908;4.204;2022-12-13T06:35:57;-2.90;99.90
15717;DHT22;7960;50.908;4.204;2022-12-13T06:38:24;-2.80;99.90
15717;DHT22;7960;50.908;4.204;2022-12-13T06:40:51;-2.90;99.90
15717;DHT22;7960;50.908;4.204;2022-12-13T06:43:20;-3.00;99.90
15717;DHT22;7960;50.908;4.204;2022-12-13T06:45:47;-3.10;99.90
15717;DHT22;7960;50.908;4.204;2022-12-13T06:48:14;-3.10;99.90
15717;DHT22;7960;50.908;4.204;2022-12-13T06:50:40;-3.10;99.90
15717;DHT22;7960;50.908;4.204;2022-12-13T06:53:07;-3.10;99.90
15717;DHT22;7960;50.908;4.204;2022-12-13T06:55:34;-3.10;99.90
15717;DHT22;7960;50.908;4.204;2022-12-13T06:58:02;-3.10;99.90
15717;DHT22;7960;50.908;4.204;2022-12-13T07:00:30;-3.00;99.90
15717;DHT22;7960;50.908;4.204;2022-12-13T07:02:57;-3.20;99.90
15717;DHT22;7960;50.908;4.204;2022-12-13T07:05:24;-3.20;99.90
15717;DHT22;7960;50.908;4.204;2022-12-13T07:07:52;-3.30;99.90
15717;DHT22;7960;50.908;4.204;2022-12-13T07:10:19;-3.30;99.90
15717;DHT22;7960;50.908;4.204;2022-12-13T07:12:46;-3.40;99.90
15717;DHT22;7960;50.908;4.204;2022-12-13T07:15:13;-3.40;99.90
15717;DHT22;7960;50.908;4.204;2022-12-13T07:17:42;-3.40;99.90
15717;DHT22;7960;50.908;4.204;2022-12-13T07:20:09;-3.30;99.90
15717;DHT22;7960;50.908;4.204;2022-12-13T07:22:38;-3.30;99.90
15717;DHT22;7960;50.908;4.204;2022-12-13T07:25:05;-3.40;99.90
15717;DHT22;7960;50.908;4.204;2022-12-13T07:27:33;-3.40;99.90
15717;DHT22;7960;50.908;4.204;2022-12-13T07:30:00;-3.40;99.90
15717;DHT22;7960;50.908;4.204;2022-12-13T07:32:27;-3.30;99.90
15717;DHT22;7960;50.908;4.204;2022-12-13T07:34:55;-3.30;99.90
15717;DHT22;7960;50.908;4.204;2022-12-13T07:37:22;-3.30;99.90
15717;DHT22;7960;50.908;4.204;2022-12-13T07:39:49;-3.30;99.90
15717;DHT22;7960;50.908;4.204;2022-12-13T07:42:15;-3.30;99.90
15717;DHT22;7960;50.908;4.204;2022-12-13T07:44:42;-3.30;99.90
15717;DHT22;7960;50.908;4.204;2022-12-13T07:47:09;-3.20;99.90
15717;DHT22;7960;50.908;4.204;2022-12-13T07:49:37;-3.20;99.90
15717;DHT22;7960;50.908;4.204;2022-12-13T07:52:09;-3.20;99.90
15717;DHT22;7960;50.908;4.204;2022-12-13T07:54:37;-3.20;99.90
15717;DHT22;7960;50.908;4.204;2022-12-13T07:57:04;-3.10;99.90
15717;DHT22;7960;50.908;4.204;2022-12-13T07:59:30;-3.10;99.90
15717;DHT22;7960;50.908;4.204;2022-12-13T08:01:57;-3.20;99.90
15717;DHT22;7960;50.908;4.204;2022-12-13T08:04:24;-3.20;99.90
15717;DHT22;7960;50.908;4.204;2022-12-13T08:06:51;-3.10;99.90
15717;DHT22;7960;50.908;4.204;2022-12-13T08:09:20;-3.10;99.90
15717;DHT22;7960;50.908;4.204;2022-12-13T08:11:46;-3.00;99.90
15717;DHT22;7960;50.908;4.204;2022-12-13T08:14:14;-2.90;99.90
15717;DHT22;7960;50.908;4.204;2022-12-13T08:16:41;-2.90;99.90
15717;DHT22;7960;50.908;4.204;2022-12-13T08:19:08;-2.90;99.90
15717;DHT22;7960;50.908;4.204;2022-12-13T08:21:36;-3.00;99.90
15717;DHT22;7960;50.908;4.204;2022-12-13T08:24:03;-3.00;99.90
15717;DHT22;7960;50.908;4.204;2022-12-13T08:26:32;-2.80;99.90
15717;DHT22;7960;50.908;4.204;2022-12-13T08:29:01;-2.70;99.90
15717;DHT22;7960;50.908;4.204;2022-12-13T08:31:28;-2.50;99.90
15717;DHT22;7960;50.908;4.204;2022-12-13T08:33:55;-2.20;99.90
15717;DHT22;7960;50.908;4.204;2022-12-13T08:36:22;-2.10;99.90
15717;DHT22;7960;50.908;4.204;2022-12-13T08:38:49;-2.00;99.90
15717;DHT22;7960;50.908;4.204;2022-12-13T08:41:17;-2.00;99.90
15717;DHT22;7960;50.908;4.204;2022-12-13T08:43:46;-2.00;99.90
15717;DHT22;7960;50.908;4.204;2022-12-13T08:46:13;-1.70;99.90
15717;DHT22;7960;50.908;4.204;2022-12-13T08:48:41;-1.50;99.90
15717;DHT22;7960;50.908;4.204;2022-12-13T08:51:16;-1.50;99.90
15717;DHT22;7960;50.908;4.204;2022-12-13T08:53:48;-1.70;99.90
15717;DHT22;7960;50.908;4.204;2022-12-13T08:56:15;-1.60;99.90
15717;DHT22;7960;50.908;4.204;2022-12-13T08:58:43;-1.70;99.90
15717;DHT22;7960;50.908;4.204;2022-12-13T09:01:11;-1.50;99.90
15717;DHT22;7960;50.908;4.204;2022-12-13T09:03:38;-1.20;99.90
15717;DHT22;7960;50.908;4.204;2022-12-13T09:06:06;-1.20;99.90
15717;DHT22;7960;50.908;4.204;2022-12-13T09:08:33;-1.20;99.90
15717;DHT22;7960;50.908;4.204;2022-12-13T09:11:01;-1.10;99.90
15717;DHT22;7960;50.908;4.204;2022-12-13T09:13:29;-1.10;99.90
15717;DHT22;7960;50.908;4.204;2022-12-13T09:15:57;-1.00;99.90
15717;DHT22;7960;50.908;4.204;2022-12-13T09:18:26;-0.80;99.90
15717;DHT22;7960;50.908;4.204;2022-12-13T09:20:52;-0.80;99.90
15717;DHT22;7960;50.908;4.204;2022-12-13T09:23:19;-0.90;99.90
15717;DHT22;7960;50.908;4.204;2022-12-13T09:25:52;-0.80;99.90
15717;DHT22;7960;50.908;4.204;2022-12-13T09:28:19;-0.80;99.90
15717;DHT22;7960;50.908;4.204;2022-12-13T09:30:46;-0.60;99.90
15717;DHT22;7960;50.908;4.204;2022-12-13T09:33:13;-0.10;99.90
15717;DHT22;7960;50.908;4.204;2022-12-13T09:35:41;0.00;99.90
15717;DHT22;7960;50.908;4.204;2022-12-13T09:38:08;0.00;99.90
15717;DHT22;7960;50.908;4.204;2022-12-13T09:40:36;-0.10;99.90
15717;DHT22;7960;50.908;4.204;2022-12-13T09:43:04;-0.10;99.90
15717;DHT22;7960;50.908;4.204;2022-12-13T09:45:33;-0.20;99.90
15717;DHT22;7960;50.908;4.204;2022-12-13T09:48:00;-0.30;99.90
15717;DHT22;7960;50.908;4.204;2022-12-13T09:50:30;-0.20;99.90
15717;DHT22;7960;50.908;4.204;2022-12-13T09:53:00;0.10;99.90
15717;DHT22;7960;50.908;4.204;2022-12-13T09:55:31;0.10;99.90
15717;DHT22;7960;50.908;4.204;2022-12-13T09:58:06;0.00;99.90
15717;DHT22;7960;50.908;4.204;2022-12-13T10:00:35;0.20;99.90
15717;DHT22;7960;50.908;4.204;2022-12-13T10:03:02;0.70;99.90
15717;DHT22;7960;50.908;4.204;2022-12-13T10:05:31;1.00;99.90
15717;DHT22;7960;50.908;4.204;2022-12-13T10:08:04;1.20;99.90
15717;DHT22;7960;50.908;4.204;2022-12-13T10:10:32;1.20;99.90
15717;DHT22;7960;50.908;4.204;2022-12-13T10:13:04;1.30;99.90
15717;DHT22;7960;50.908;4.204;2022-12-13T10:15:37;1.50;99.90
15717;DHT22;7960;50.908;4.204;2022-12-13T10:18:06;1.90;99.90
15717;DHT22;7960;50.908;4.204;2022-12-13T10:20:36;2.00;99.90
15717;DHT22;7960;50.908;4.204;2022-12-13T10:23:04;1.90;99.90
15717;DHT22;7960;50.908;4.204;2022-12-13T10:25:46;2.00;99.90
15717;DHT22;7960;50.908;4.204;2022-12-13T10:28:16;2.10;99.90
15717;DHT22;7960;50.908;4.204;2022-12-13T10:30:44;2.10;99.90
15717;DHT22;7960;50.908;4.204;2022-12-13T10:33:23;2.10;99.90
15717;DHT22;7960;50.908;4.204;2022-12-13T10:36:10;2.20;99.90
15717;DHT22;7960;50.908;4.204;2022-12-13T10:38:41;2.20;99.90
15717;DHT22;7960;50.908;4.204;2022-12-13T10:41:27;1.80;99.90
15717;DHT22;7960;50.908;4.204;2022-12-13T10:44:17;1.60;99.90
15717;DHT22;7960;50.908;4.204;2022-12-13T10:46:58;1.60;99.90
15717;DHT22;7960;50.908;4.204;2022-12-13T10:49:34;1.40;99.90
15717;DHT22;7960;50.908;4.204;2022-12-13T10:52:01;1.40;99.90
15717;DHT22;7960;50.908;4.204;2022-12-13T10:54:30;1.30;99.90
15717;DHT22;7960;50.908;4.204;2022-12-13T10:56:58;1.90;99.90
15717;DHT22;7960;50.908;4.204;2022-12-13T10:59:30;2.10;99.90
15717;DHT22;7960;50.908;4.204;2022-12-13T11:01:58;2.30;99.90
15717;DHT22;7960;50.908;4.204;2022-12-13T11:04:27;2.60;99.90
15717;DHT22;7960;50.908;4.204;2022-12-13T11:06:57;2.60;99.90
15717;DHT22;7960;50.908;4.204;2022-12-13T11:09:26;2.50;99.90
15717;DHT22;7960;50.908;4.204;2022-12-13T11:11:56;2.40;99.90
15717;DHT22;7960;50.908;4.204;2022-12-13T11:14:26;2.40;99.90
15717;DHT22;7960;50.908;4.204;2022-12-13T11:16:55;2.10;99.90
15717;DHT22;7960;50.908;4.204;2022-12-13T11:19:28;2.10;99.90
15717;DHT22;7960;50.908;4.204;2022-12-13T11:21:58;2.10;99.90
15717;DHT22;7960;50.908;4.204;2022-12-13T11:24:31;2.20;99.90
15717;DHT22;7960;50.908;4.204;2022-12-13T11:27:15;1.90;99.90
15717;DHT22;7960;50.908;4.204;2022-12-13T11:29:55;1.90;99.90
15717;DHT22;7960;50.908;4.204;2022-12-13T11:32:36;1.70;99.90
15717;DHT22;7960;50.908;4.204;2022-12-13T11:35:10;1.70;99.90
15717;DHT22;7960;50.908;4.204;2022-12-13T11:37:44;1.80;99.90
15717;DHT22;7960;50.908;4.204;2022-12-13T11:40:17;1.80;99.90
15717;DHT22;7960;50.908;4.204;2022-12-13T11:42:50;1.90;99.90
15717;DHT22;7960;50.908;4.204;2022-12-13T11:45:21;1.80;99.90
15717;DHT22;7960;50.908;4.204;2022-12-13T11:47:52;1.50;99.90
15717;DHT22;7960;50.908;4.204;2022-12-13T11:50:24;1.60;99.90
15717;DHT22;7960;50.908;4.204;2022-12-13T11:52:56;1.50;99.90
15717;DHT22;7960;50.908;4.204;2022-12-13T11:55:34;1.70;99.90
15717;DHT22;7960;50.908;4.204;2022-12-13T11:58:09;1.90;99.90
15717;DHT22;7960;50.908;4.204;2022-12-13T12:00:40;1.90;99.90
15717;DHT22;7960;50.908;4.204;2022-12-13T12:03:15;1.90;99.90
15717;DHT22;7960;50.908;4.204;2022-12-13T12:05:47;1.80;99.90
15717;DHT22;7960;50.908;4.204;2022-12-13T12:08:20;1.70;99.90
15717;DHT22;7960;50.908;4.204;2022-12-13T12:10:55;1.60;99.90
15717;DHT22;7960;50.908;4.204;2022-12-13T12:13:28;1.60;99.90
15717;DHT22;7960;50.908;4.204;2022-12-13T12:16:04;1.40;99.90
15717;DHT22;7960;50.908;4.204;2022-12-13T12:18:32;1.20;99.90
15717;DHT22;7960;50.908;4.204;2022-12-13T12:21:07;1.40;99.90
15717;DHT22;7960;50.908;4.204;2022-12-13T12:23:46;1.40;99.90
15717;DHT22;7960;50.908;4.204;2022-12-13T12:26:24;1.40;99.90
15717;DHT22;7960;50.908;4.204;2022-12-13T12:29:04;1.50;99.90
15717;DHT22;7960;50.908;4.204;2022-12-13T12:31:42;1.50;99.90
15717;DHT22;7960;50.908;4.204;2022-12-13T12:34:23;1.40;99.90
15717;DHT22;7960;50.908;4.204;2022-12-13T12:37:01;1.50;99.90
15717;DHT22;7960;50.908;4.204;2022-12-13T12:39:43;1.50;99.90
15717;DHT22;7960;50.908;4.204;2022-12-13T12:45:26;1.30;99.90
15717;DHT22;7960;50.908;4.204;2022-12-13T12:48:03;1.30;99.90
15717;DHT22;7960;50.908;4.204;2022-12-13T12:50:38;1.40;99.90
15717;DHT22;7960;50.908;4.204;2022-12-13T12:53:27;1.40;99.90
15717;DHT22;7960;50.908;4.204;2022-12-13T12:56:03;1.30;99.90
15717;DHT22;7960;50.908;4.204;2022-12-13T12:58:36;1.30;99.90
15717;DHT22;7960;50.908;4.204;2022-12-13T13:01:19;1.30;99.90
15717;DHT22;7960;50.908;4.204;2022-12-13T13:03:52;1.30;99.90
15717;DHT22;7960;50.908;4.204;2022-12-13T13:06:22;1.30;99.90
15717;DHT22;7960;50.908;4.204;2022-12-13T13:08:54;1.20;99.90
15717;DHT22;7960;50.908;4.204;2022-12-13T13:11:24;1.10;99.90
15717;DHT22;7960;50.908;4.204;2022-12-13T13:14:23;1.20;99.90
15717;DHT22;7960;50.908;4.204;2022-12-13T13:16:51;1.10;99.90
15717;DHT22;7960;50.908;4.204;2022-12-13T13:19:41;1.20;99.90
15717;DHT22;7960;50.908;4.204;2022-12-13T13:22:27;1.20;99.90
15717;DHT22;7960;50.908;4.204;2022-12-13T13:25:24;1.20;99.90
15717;DHT22;7960;50.908;4.204;2022-12-13T13:28:01;1.30;99.90
15717;DHT22;7960;50.908;4.204;2022-12-13T13:30:28;1.20;99.90
15717;DHT22;7960;50.908;4.204;2022-12-13T13:32:57;1.10;99.90
15717;DHT22;7960;50.908;4.204;2022-12-13T13:41:52;1.30;99.90
15717;DHT22;7960;50.908;4.204;2022-12-13T13:44:53;1.30;99.90
15717;DHT22;7960;50.908;4.204;2022-12-13T13:47:36;1.20;99.90
15717;DHT22;7960;50.908;4.204;2022-12-13T13:57:08;1.10;99.90
15717;DHT22;7960;50.908;4.204;2022-12-13T14:00:08;1.10;99.90
15717;DHT22;7960;50.908;4.204;2022-12-13T14:09:29;1.00;99.90
15717;DHT22;7960;50.908;4.204;2022-12-13T14:12:49;1.00;99.90
15717;DHT22;7960;50.908;4.204;2022-12-13T14:16:01;0.90;99.90
15717;DHT22;7960;50.908;4.204;2022-12-13T14:22:04;0.60;99.90
15717;DHT22;7960;50.908;4.204;2022-12-13T14:24:41;0.60;99.90
15717;DHT22;7960;50.908;4.204;2022-12-13T14:27:18;0.60;99.90
15717;DHT22;7960;50.908;4.204;2022-12-13T14:29:46;0.70;99.90
15717;DHT22;7960;50.908;4.204;2022-12-13T14:32:19;0.80;99.90
15717;DHT22;7960;50.908;4.204;2022-12-13T14:34:47;0.80;99.90
15717;DHT22;7960;50.908;4.204;2022-12-13T14:37:25;0.70;99.90
15717;DHT22;7960;50.908;4.204;2022-12-13T14:39:54;0.60;99.90
15717;DHT22;7960;50.908;4.204;2022-12-13T14:42:23;0.50;99.90
15717;DHT22;7960;50.908;4.204;2022-12-13T14:44:51;0.40;99.90
15717;DHT22;7960;50.908;4.204;2022-12-13T14:47:19;0.50;99.90
15717;DHT22;7960;50.908;4.204;2022-12-13T14:49:52;0.50;99.90
15717;DHT22;7960;50.908;4.204;2022-12-13T14:52:21;0.50;99.90
15717;DHT22;7960;50.908;4.204;2022-12-13T14:54:51;0.50;99.90
15717;DHT22;7960;50.908;4.204;2022-12-13T14:57:21;0.60;99.90
15717;DHT22;7960;50.908;4.204;2022-12-13T14:59:50;0.50;99.90
15717;DHT22;7960;50.908;4.204;2022-12-13T15:02:20;0.50;99.90
15717;DHT22;7960;50.908;4.204;2022-12-13T15:04:47;0.40;99.90
15717;DHT22;7960;50.908;4.204;2022-12-13T15:07:19;0.40;99.90
15717;DHT22;7960;50.908;4.204;2022-12-13T15:09:52;0.30;99.90
15717;DHT22;7960;50.908;4.204;2022-12-13T15:12:22;0.40;99.90
15717;DHT22;7960;50.908;4.204;2022-12-13T15:14:52;0.30;99.90
15717;DHT22;7960;50.908;4.204;2022-12-13T15:17:26;0.30;99.90
15717;DHT22;7960;50.908;4.204;2022-12-13T15:19:53;0.40;99.90
15717;DHT22;7960;50.908;4.204;2022-12-13T15:22:20;0.30;99.90
15717;DHT22;7960;50.908;4.204;2022-12-13T15:24:47;0.30;99.90
15717;DHT22;7960;50.908;4.204;2022-12-13T15:27:16;0.30;99.90
15717;DHT22;7960;50.908;4.204;2022-12-13T15:29:48;0.20;99.90
15717;DHT22;7960;50.908;4.204;2022-12-13T15:32:17;0.20;99.90
15717;DHT22;7960;50.908;4.204;2022-12-13T15:34:48;0.10;99.90
15717;DHT22;7960;50.908;4.204;2022-12-13T15:37:28;0.10;99.90
15717;DHT22;7960;50.908;4.204;2022-12-13T15:39:59;0.10;99.90
15717;DHT22;7960;50.908;4.204;2022-12-13T15:42:30;0.10;99.90
15717;DHT22;7960;50.908;4.204;2022-12-13T15:45:01;0.10;99.90
15717;DHT22;7960;50.908;4.204;2022-12-13T15:47:28;0.10;99.90
15717;DHT22;7960;50.908;4.204;2022-12-13T15:49:57;0.10;99.90
15717;DHT22;7960;50.908;4.204;2022-12-13T15:52:30;0.10;99.90
15717;DHT22;7960;50.908;4.204;2022-12-13T15:54:59;0.10;99.90
15717;DHT22;7960;50.908;4.204;2022-12-13T15:57:29;0.00;99.90
15717;DHT22;7960;50.908;4.204;2022-12-13T16:00:21;0.00;99.90
15717;DHT22;7960;50.908;4.204;2022-12-13T16:02:52;-0.10;99.90
15717;DHT22;7960;50.908;4.204;2022-12-13T16:05:24;0.00;99.90
15717;DHT22;7960;50.908;4.204;2022-12-13T16:07:53;-0.10;99.90
15717;DHT22;7960;50.908;4.204;2022-12-13T16:10:21;-0.10;99.90
15717;DHT22;7960;50.908;4.204;2022-12-13T16:12:50;-0.10;99.90
15717;DHT22;7960;50.908;4.204;2022-12-13T16:15:20;-0.10;99.90
15717;DHT22;7960;50.908;4.204;2022-12-13T16:17:50;-0.10;99.90
15717;DHT22;7960;50.908;4.204;2022-12-13T16:20:18;-0.10;99.90
15717;DHT22;7960;50.908;4.204;2022-12-13T16:22:46;-0.20;99.90
15717;DHT22;7960;50.908;4.204;2022-12-13T16:25:15;-0.20;99.90
15717;DHT22;7960;50.908;4.204;2022-12-13T16:27:43;-0.10;99.90
15717;DHT22;7960;50.908;4.204;2022-12-13T16:30:23;-0.10;99.90
15717;DHT22;7960;50.908;4.204;2022-12-13T16:32:50;-0.20;99.90
15717;DHT22;7960;50.908;4.204;2022-12-13T16:35:18;-0.30;99.90
15717;DHT22;7960;50.908;4.204;2022-12-13T16:37:46;-0.20;99.90
15717;DHT22;7960;50.908;4.204;2022-12-13T16:40:23;-0.30;99.90
15717;DHT22;7960;50.908;4.204;2022-12-13T16:42:56;-0.40;99.90
15717;DHT22;7960;50.908;4.204;2022-12-13T16:45:28;-0.30;99.90